Time;durP1;ratioP1;P1;durP2;ratioP2;P2;SDS_P1;SDS_P2;PMS_P1;PMS_P2;Temp;Humidity;BMP_temperature;BMP_pressure;BME280_temperature;BME280_humidity;BME280_pressure;Samples;Min_cycle;Max_cycle;Signal;HPM_P1;HPM_P2
2021/09/24 00:01:07;;;;;;;1.63;1.23;;;24.00;50.40;;;;;;5024148;28;20034;-59
2021/09/24 00:03:32;;;;;;;2.30;1.38;;;24.00;50.00;;;;;;5031100;28;20025;-59
2021/09/24 00:05:58;;;;;;;1.92;1.30;;;24.00;50.00;;;;;;5022066;28;20034;-57
2021/09/24 00:08:25;;;;;;;2.50;1.38;;;24.00;50.00;;;;;;5023936;28;20033;-59
2021/09/24 00:10:51;;;;;;;2.00;1.40;;;24.00;50.00;;;;;;5032399;28;20033;-57
2021/09/24 00:13:17;;;;;;;1.80;1.30;;;24.00;50.00;;;;;;5015000;28;20405;-59
2021/09/24 00:15:43;;;;;;;1.75;1.30;;;24.00;50.00;;;;;;5030931;28;20059;-59
2021/09/24 00:18:08;;;;;;;1.60;1.17;;;24.00;50.00;;;;;;5019890;28;20191;-59
2021/09/24 00:20:34;;;;;;;1.70;1.20;;;24.00;50.00;;;;;;5020764;28;20125;-59
2021/09/24 00:23:00;;;;;;;1.60;1.00;;;24.00;50.10;;;;;;5024551;28;20030;-58
2021/09/24 00:25:26;;;;;;;1.75;1.20;;;23.90;50.00;;;;;;5030255;28;20076;-60
2021/09/24 00:27:52;;;;;;;1.90;1.30;;;23.90;50.10;;;;;;5008271;28;20053;-54
2021/09/24 00:30:17;;;;;;;2.88;1.30;;;23.90;50.10;;;;;;5016083;28;20135;-58
2021/09/24 00:32:43;;;;;;;1.90;1.40;;;23.90;50.10;;;;;;5023240;28;20033;-60
2021/09/24 00:35:09;;;;;;;2.08;1.30;;;23.90;50.10;;;;;;5020070;28;20033;-60
2021/09/24 00:37:35;;;;;;;1.88;1.38;;;23.90;50.10;;;;;;5016251;28;20033;-58
2021/09/24 00:40:00;;;;;;;1.85;1.33;;;23.90;50.10;;;;;;5022574;28;20049;-59
2021/09/24 00:42:26;;;;;;;2.13;1.35;;;23.90;50.20;;;;;;5029586;28;20033;-60
2021/09/24 00:44:52;;;;;;;1.50;1.20;;;23.90;50.20;;;;;;5008939;28;20037;-58
2021/09/24 00:47:20;;;;;;;1.83;1.40;;;23.90;50.20;;;;;;5019502;28;20095;-58
2021/09/24 00:49:46;;;;;;;1.80;1.30;;;23.80;50.10;;;;;;5017522;28;20084;-59
2021/09/24 00:52:12;;;;;;;1.92;1.38;;;23.80;50.20;;;;;;5018897;28;20108;-59
2021/09/24 00:54:39;;;;;;;1.70;1.30;;;23.80;50.10;;;;;;5020514;28;20030;-54
2021/09/24 00:57:06;;;;;;;2.05;1.42;;;23.80;50.20;;;;;;5027562;28;20044;-59
2021/09/24 00:59:32;;;;;;;2.33;1.20;;;23.80;50.20;;;;;;5010622;28;20033;-57
2021/09/24 01:01:58;;;;;;;2.15;1.20;;;23.80;50.30;;;;;;5010179;28;20160;-60
2021/09/24 01:04:25;;;;;;;1.67;1.20;;;23.80;50.30;;;;;;5013067;28;20112;-59
2021/09/24 01:06:51;;;;;;;1.70;1.10;;;23.80;50.30;;;;;;5019141;28;20031;-59
2021/09/24 01:09:17;;;;;;;1.50;1.20;;;23.70;50.20;;;;;;5015483;28;20018;-58
2021/09/24 01:11:43;;;;;;;1.98;1.30;;;23.70;50.20;;;;;;5015197;28;20168;-59
2021/09/24 01:14:08;;;;;;;2.30;1.40;;;23.70;50.20;;;;;;5026589;28;20141;-58
2021/09/24 01:16:34;;;;;;;1.75;1.30;;;23.70;50.30;;;;;;5024661;28;20056;-60
2021/09/24 01:19:00;;;;;;;2.17;1.42;;;23.70;50.20;;;;;;5026177;28;20104;-53
2021/09/24 01:21:26;;;;;;;1.90;1.35;;;23.70;50.30;;;;;;5030338;28;20095;-60
2021/09/24 01:23:52;;;;;;;1.95;1.30;;;23.70;50.30;;;;;;5021623;28;20037;-58
2021/09/24 01:26:17;;;;;;;2.65;1.33;;;23.70;50.30;;;;;;5028580;28;20043;-56
2021/09/24 01:28:44;;;;;;;1.83;1.30;;;23.70;50.30;;;;;;5022662;28;20561;-59
2021/09/24 01:31:11;;;;;;;1.80;1.40;;;23.70;50.40;;;;;;5021893;28;20476;-59
2021/09/24 01:33:42;;;;;;;2.35;1.58;;;23.70;50.40;;;;;;5025278;28;20014;-59
2021/09/24 01:36:08;;;;;;;2.55;1.30;;;23.70;50.40;;;;;;5030550;28;20041;-59
2021/09/24 01:38:34;;;;;;;2.03;1.30;;;23.70;50.40;;;;;;5031186;28;20030;-58
2021/09/24 01:40:59;;;;;;;2.08;1.30;;;23.60;50.30;;;;;;5031642;28;20076;-59
2021/09/24 01:43:25;;;;;;;2.28;1.50;;;23.60;50.30;;;;;;5020808;28;20037;-59
2021/09/24 01:45:51;;;;;;;2.05;1.38;;;23.60;50.40;;;;;;5024245;28;20088;-59
2021/09/24 01:48:16;;;;;;;1.88;1.30;;;23.60;50.40;;;;;;5029534;28;20037;-60
2021/09/24 01:50:42;;;;;;;3.08;1.50;;;23.60;50.40;;;;;;5018804;28;20422;-58
2021/09/24 01:53:07;;;;;;;1.75;1.30;;;23.60;50.40;;;;;;5030767;28;20346;-59
2021/09/24 01:55:33;;;;;;;1.95;1.40;;;23.60;50.40;;;;;;5022430;28;20068;-59
2021/09/24 01:57:59;;;;;;;1.98;1.45;;;23.60;50.40;;;;;;5025051;28;20109;-59
2021/09/24 02:00:24;;;;;;;2.05;1.40;;;23.60;50.50;;;;;;5024351;28;20029;-60
2021/09/24 02:02:50;;;;;;;1.80;1.20;;;23.60;50.50;;;;;;5021585;28;20045;-59
2021/09/24 02:05:15;;;;;;;1.85;1.17;;;23.50;50.40;;;;;;5032106;28;20347;-59
2021/09/24 02:07:41;;;;;;;1.90;1.40;;;23.60;50.50;;;;;;5026485;28;20112;-59
2021/09/24 02:10:08;;;;;;;1.90;1.40;;;23.60;50.60;;;;;;5030513;28;20523;-60
2021/09/24 02:12:33;;;;;;;2.03;1.48;;;23.50;50.50;;;;;;5028390;28;20022;-60
2021/09/24 02:14:59;;;;;;;1.65;1.27;;;23.50;50.50;;;;;;5022376;28;20029;-52
2021/09/24 02:17:25;;;;;;;1.95;1.30;;;23.50;50.50;;;;;;5018734;28;20087;-60
2021/09/24 02:19:50;;;;;;;2.85;1.42;;;23.50;50.50;;;;;;5035829;28;20471;-53
2021/09/24 02:22:16;;;;;;;1.88;1.38;;;23.50;50.50;;;;;;5025035;28;20029;-59
2021/09/24 02:24:42;;;;;;;1.60;1.27;;;23.50;50.50;;;;;;5026862;28;20110;-59
2021/09/24 02:27:07;;;;;;;2.00;1.50;;;23.50;50.60;;;;;;5033901;28;20589;-60
2021/09/24 02:29:33;;;;;;;2.00;1.30;;;23.40;50.50;;;;;;5027179;28;20745;-59
2021/09/24 02:31:58;;;;;;;2.30;1.63;;;23.40;50.50;;;;;;5037331;28;20045;-58
2021/09/24 02:34:24;;;;;;;2.40;1.30;;;23.50;50.60;;;;;;5019865;28;20030;-59
2021/09/24 02:36:50;;;;;;;2.25;1.38;;;23.40;50.60;;;;;;5033767;28;20067;-56
2021/09/24 02:39:15;;;;;;;2.20;1.40;;;23.40;50.60;;;;;;5029874;28;20112;-59
2021/09/24 02:41:41;;;;;;;1.70;1.30;;;23.40;50.60;;;;;;5035444;28;20030;-58
2021/09/24 02:44:07;;;;;;;2.22;1.40;;;23.40;50.60;;;;;;5022375;28;20037;-59
2021/09/24 02:46:33;;;;;;;1.80;1.20;;;23.40;50.60;;;;;;5024959;28;20054;-59
2021/09/24 02:48:59;;;;;;;1.80;1.40;;;23.40;51.10;;;;;;5022307;28;20045;-58
2021/09/24 02:51:24;;;;;;;2.03;1.35;;;23.40;50.60;;;;;;5027017;28;20053;-59
2021/09/24 02:53:50;;;;;;;1.85;1.30;;;23.40;50.60;;;;;;5032171;28;20116;-59
2021/09/24 02:56:16;;;;;;;1.60;1.25;;;23.40;50.60;;;;;;5050856;28;20533;-59
2021/09/24 02:58:41;;;;;;;1.75;1.40;;;23.40;50.60;;;;;;5038799;28;20404;-59
2021/09/24 03:01:07;;;;;;;1.38;1.10;;;23.40;50.70;;;;;;5025243;28;20462;-60
2021/09/24 03:03:32;;;;;;;1.58;1.27;;;23.40;50.70;;;;;;5025488;28;20061;-57
2021/09/24 03:05:58;;;;;;;2.08;1.35;;;23.40;50.70;;;;;;5015353;28;20033;-59
2021/09/24 03:08:24;;;;;;;1.70;1.20;;;23.40;50.70;;;;;;5014880;28;20030;-59
2021/09/24 03:10:49;;;;;;;2.00;1.50;;;23.40;50.70;;;;;;5023133;28;20038;-55
2021/09/24 03:13:15;;;;;;;1.65;1.30;;;23.40;50.70;;;;;;5023037;28;20084;-59
2021/09/24 03:15:41;;;;;;;1.90;1.40;;;23.30;50.70;;;;;;5024453;28;20380;-60
2021/09/24 03:18:06;;;;;;;1.90;1.40;;;23.30;50.60;;;;;;5037099;28;20040;-60
2021/09/24 03:20:32;;;;;;;1.65;1.30;;;23.30;50.70;;;;;;5025718;28;20033;-59
2021/09/24 03:22:58;;;;;;;2.10;1.42;;;23.30;50.70;;;;;;5026317;28;20108;-60
2021/09/24 03:25:23;;;;;;;1.88;1.40;;;23.30;50.70;;;;;;5023360;28;20025;-60
2021/09/24 03:27:49;;;;;;;2.00;1.50;;;23.30;50.80;;;;;;5023662;28;20056;-60
2021/09/24 03:30:16;;;;;;;1.77;1.30;;;23.30;50.70;;;;;;5019996;28;20119;-58
2021/09/24 03:32:42;;;;;;;1.73;1.38;;;23.30;50.70;;;;;;5019307;28;20156;-60
2021/09/24 03:35:09;;;;;;;2.10;1.50;;;23.30;51.30;;;;;;5021496;28;20048;-55
2021/09/24 03:37:35;;;;;;;1.85;1.40;;;23.30;50.80;;;;;;5016137;28;20036;-59
2021/09/24 03:40:01;;;;;;;1.90;1.40;;;23.30;50.80;;;;;;5025290;28;20112;-58
2021/09/24 03:42:26;;;;;;;1.88;1.40;;;23.30;51.30;;;;;;5025573;28;20037;-58
2021/09/24 03:44:52;;;;;;;1.67;1.20;;;23.30;50.80;;;;;;5025458;28;20060;-59
2021/09/24 03:47:18;;;;;;;1.73;1.30;;;23.20;50.70;;;;;;5023686;28;20026;-60
2021/09/24 03:49:43;;;;;;;1.90;1.30;;;23.20;50.80;;;;;;5018957;28;20044;-59
2021/09/24 03:52:09;;;;;;;1.98;1.38;;;23.20;50.80;;;;;;5017414;28;20029;-55
2021/09/24 03:54:35;;;;;;;2.90;1.40;;;23.20;50.80;;;;;;5026547;28;20083;-54
2021/09/24 03:57:00;;;;;;;2.15;1.40;;;23.20;50.80;;;;;;5024619;28;20101;-59
2021/09/24 03:59:27;;;;;;;2.13;1.40;;;23.10;50.80;;;;;;5019493;28;20464;-58
2021/09/24 04:01:52;;;;;;;2.03;1.45;;;23.20;50.80;;;;;;5023929;28;20040;-60
2021/09/24 04:04:18;;;;;;;1.95;1.48;;;23.20;50.80;;;;;;5018793;28;20063;-57
2021/09/24 04:06:43;;;;;;;2.17;1.30;;;23.20;50.90;;;;;;5013308;28;20082;-60
2021/09/24 04:09:10;;;;;;;2.28;1.38;;;23.20;50.90;;;;;;5023914;28;20026;-59
2021/09/24 04:11:37;;;;;;;1.90;1.42;;;23.20;51.00;;;;;;5037011;28;20018;-60
2021/09/24 04:14:03;;;;;;;1.70;1.38;;;23.10;50.90;;;;;;5023619;28;20032;-60
2021/09/24 04:16:29;;;;;;;2.28;1.45;;;23.10;50.90;;;;;;5026121;28;20021;-59
2021/09/24 04:18:55;;;;;;;2.00;1.38;;;23.10;50.90;;;;;;5022139;28;20060;-59
2021/09/24 04:21:20;;;;;;;1.80;1.30;;;23.10;50.90;;;;;;5027710;28;20403;-61
2021/09/24 04:23:46;;;;;;;2.08;1.40;;;23.10;51.40;;;;;;5025892;28;20098;-60
2021/09/24 04:26:12;;;;;;;2.05;1.45;;;23.10;50.90;;;;;;5022001;28;20115;-60
2021/09/24 04:28:37;;;;;;;1.60;1.38;;;23.10;50.90;;;;;;5017257;28;20022;-59
2021/09/24 04:31:03;;;;;;;2.20;1.70;;;23.10;51.00;;;;;;5020507;28;20122;-59
2021/09/24 04:33:28;;;;;;;2.60;1.55;;;23.10;51.00;;;;;;5019576;28;20029;-60
2021/09/24 04:35:54;;;;;;;2.00;1.30;;;23.10;51.00;;;;;;5014735;28;20041;-59
2021/09/24 04:38:20;;;;;;;1.65;1.25;;;23.10;51.00;;;;;;5021343;28;20175;-59
2021/09/24 04:40:45;;;;;;;2.40;1.40;;;23.10;51.00;;;;;;5015749;28;20084;-59
2021/09/24 04:43:11;;;;;;;2.00;1.40;;;23.00;51.00;;;;;;5021859;28;20454;-60
2021/09/24 04:45:36;;;;;;;2.25;1.45;;;23.00;51.10;;;;;;5015201;28;20033;-60
2021/09/24 04:48:02;;;;;;;1.80;1.40;;;23.00;51.10;;;;;;5021673;28;20026;-60
2021/09/24 04:50:28;;;;;;;1.67;1.25;;;23.00;51.10;;;;;;5019149;28;20021;-56
2021/09/24 04:52:54;;;;;;;2.22;1.40;;;23.00;51.10;;;;;;5013895;28;20100;-60
2021/09/24 04:55:19;;;;;;;2.08;1.42;;;23.00;51.10;;;;;;5017573;28;20037;-59
2021/09/24 04:57:45;;;;;;;1.90;1.40;;;23.00;51.10;;;;;;5035758;28;20033;-58
2021/09/24 05:00:12;;;;;;;2.33;1.50;;;23.00;51.10;;;;;;5011745;28;20044;-55
2021/09/24 05:02:38;;;;;;;2.40;1.40;;;23.00;51.10;;;;;;5020742;28;20412;-60
2021/09/24 05:05:05;;;;;;;2.10;1.38;;;23.00;51.10;;;;;;5021178;28;20041;-59
2021/09/24 05:07:30;;;;;;;2.33;1.40;;;23.00;51.20;;;;;;5019651;28;20030;-58
2021/09/24 05:09:56;;;;;;;1.67;1.25;;;23.00;51.20;;;;;;5016731;28;20021;-59
2021/09/24 05:12:21;;;;;;;1.83;1.45;;;23.00;51.20;;;;;;5016609;28;20029;-60
2021/09/24 05:14:47;;;;;;;3.17;1.80;;;23.00;51.30;;;;;;5036609;28;20115;-55
2021/09/24 05:17:13;;;;;;;2.72;1.52;;;23.00;51.20;;;;;;5021103;28;20133;-55
2021/09/24 05:19:38;;;;;;;2.70;2.03;;;23.10;51.10;;;;;;5026672;28;20068;-59
2021/09/24 05:22:05;;;;;;;3.88;1.80;;;23.20;50.90;;;;;;5017029;28;20033;-61
2021/09/24 05:24:31;;;;;;;3.88;1.90;;;23.30;50.70;;;;;;5019294;28;20036;-61
2021/09/24 05:26:56;;;;;;;3.00;1.75;;;23.40;50.60;;;;;;5018078;28;20038;-60
2021/09/24 05:29:22;;;;;;;2.20;1.75;;;23.40;50.50;;;;;;5016385;28;20033;-60
2021/09/24 05:31:49;;;;;;;2.65;1.60;;;23.50;50.40;;;;;;5027438;28;20043;-61
2021/09/24 05:34:15;;;;;;;5.32;1.60;;;23.60;50.40;;;;;;5018296;28;20034;-60
2021/09/24 05:36:41;;;;;;;2.65;1.75;;;23.60;50.30;;;;;;5018773;28;20504;-61
2021/09/24 05:39:06;;;;;;;2.00;1.60;;;23.60;50.20;;;;;;5022193;28;20026;-61
2021/09/24 05:41:32;;;;;;;2.65;1.70;;;23.60;50.60;;;;;;5016540;28;20100;-60
2021/09/24 05:43:58;;;;;;;4.13;1.73;;;23.60;50.30;;;;;;5018888;28;20057;-59
2021/09/24 05:46:24;;;;;;;2.70;1.70;;;23.60;50.20;;;;;;5016368;28;20481;-59
2021/09/24 05:48:49;;;;;;;3.25;1.58;;;23.60;50.20;;;;;;5026439;28;20406;-58
2021/09/24 05:51:15;;;;;;;2.53;1.65;;;23.70;50.20;;;;;;5020642;28;20084;-61
2021/09/24 05:53:41;;;;;;;2.33;1.55;;;23.70;50.10;;;;;;5015725;28;20057;-59
2021/09/24 05:56:06;;;;;;;3.22;1.60;;;23.70;50.10;;;;;;5018808;28;20037;-58
2021/09/24 05:58:32;;;;;;;2.90;1.50;;;23.70;50.20;;;;;;5024559;28;20029;-60
2021/09/24 06:00:58;;;;;;;2.28;1.40;;;23.70;50.30;;;;;;5018054;28;20042;-57
2021/09/24 06:03:24;;;;;;;2.30;1.52;;;23.70;50.20;;;;;;5017915;28;20734;-57
2021/09/24 06:05:50;;;;;;;2.78;1.50;;;23.70;50.30;;;;;;5025132;28;20136;-57
2021/09/24 06:08:16;;;;;;;2.20;1.48;;;23.70;50.20;;;;;;5028954;28;20062;-59
2021/09/24 06:10:42;;;;;;;2.50;1.60;;;23.70;50.00;;;;;;5026382;28;20034;-56
2021/09/24 06:13:09;;;;;;;3.53;1.60;;;23.70;50.60;;;;;;5021020;28;20053;-59
2021/09/24 06:15:36;;;;;;;2.90;1.70;;;23.80;50.10;;;;;;5017877;28;20044;-57
2021/09/24 06:18:03;;;;;;;3.22;1.65;;;23.80;50.10;;;;;;5017805;28;20049;-58
2021/09/24 06:20:28;;;;;;;2.83;1.80;;;23.80;50.20;;;;;;5014968;28;20052;-60
2021/09/24 06:22:54;;;;;;;2.63;1.50;;;23.80;50.20;;;;;;5020094;28;20037;-57
2021/09/24 06:25:20;;;;;;;2.50;1.50;;;23.80;50.30;;;;;;5028295;28;20025;-60
2021/09/24 06:27:46;;;;;;;2.75;1.65;;;23.80;50.30;;;;;;5023842;28;20053;-60
2021/09/24 06:30:17;;;;;;;3.40;1.83;;;23.90;50.20;;;;;;5022903;28;20022;-57
2021/09/24 06:32:43;;;;;;;2.85;1.60;;;23.90;50.00;;;;;;5016872;28;20033;-60
2021/09/24 06:35:10;;;;;;;3.60;1.60;;;23.90;50.00;;;;;;5020777;28;20028;-57
2021/09/24 06:37:36;;;;;;;2.40;1.58;;;23.90;50.20;;;;;;5022327;28;20026;-59
2021/09/24 06:40:03;;;;;;;3.45;1.50;;;23.90;50.10;;;;;;5019344;28;20455;-58
2021/09/24 06:42:29;;;;;;;4.00;2.28;;;23.90;50.10;;;;;;5023679;28;20197;-59
2021/09/24 06:44:57;;;;;;;3.03;1.75;;;24.00;50.00;;;;;;5016385;28;20157;-55
2021/09/24 06:47:23;;;;;;;2.75;1.70;;;23.90;50.50;;;;;;5016979;28;20030;-60
2021/09/24 06:49:49;;;;;;;2.65;1.58;;;23.90;50.00;;;;;;5016672;28;20049;-60
2021/09/24 06:52:15;;;;;;;2.35;1.65;;;24.00;50.10;;;;;;5022202;28;20527;-60
2021/09/24 06:54:40;;;;;;;3.50;1.70;;;24.00;49.90;;;;;;5022583;28;20400;-60
2021/09/24 06:57:06;;;;;;;2.67;1.50;;;24.00;49.80;;;;;;5020989;28;20049;-54
2021/09/24 06:59:32;;;;;;;3.58;1.42;;;24.00;50.00;;;;;;5021041;28;20031;-58
2021/09/24 07:01:58;;;;;;;2.55;1.60;;;24.00;50.00;;;;;;5016500;28;20037;-58
2021/09/24 07:04:24;;;;;;;2.25;1.40;;;24.00;50.00;;;;;;5016907;28;20025;-58
2021/09/24 07:06:49;;;;;;;2.70;1.67;;;24.00;50.00;;;;;;5026543;28;20060;-60
2021/09/24 07:09:15;;;;;;;2.83;1.75;;;24.10;50.10;;;;;;5012781;28;20073;-60
2021/09/24 07:11:42;;;;;;;2.83;1.70;;;24.00;49.80;;;;;;5024349;28;20029;-57
2021/09/24 07:14:08;;;;;;;2.45;1.67;;;24.00;49.80;;;;;;5017476;28;20099;-59
2021/09/24 07:16:36;;;;;;;3.40;1.67;;;24.10;49.70;;;;;;5022560;28;20025;-59
2021/09/24 07:19:02;;;;;;;4.45;1.80;;;24.10;49.60;;;;;;5025592;28;20798;-58
2021/09/24 07:21:27;;;;;;;5.07;1.70;;;24.10;49.80;;;;;;5021666;28;20056;-58
2021/09/24 07:23:53;;;;;;;3.88;1.90;;;24.10;50.30;;;;;;5019666;28;20160;-59
2021/09/24 07:26:19;;;;;;;3.05;1.80;;;24.10;50.00;;;;;;5025632;28;20130;-59
2021/09/24 07:28:44;;;;;;;4.90;1.90;;;24.10;49.80;;;;;;5016593;28;20392;-59
2021/09/24 07:31:10;;;;;;;2.80;1.65;;;24.10;49.70;;;;;;5019401;28;20040;-54
2021/09/24 07:33:36;;;;;;;3.45;1.90;;;24.10;50.10;;;;;;5024265;28;20057;-60
2021/09/24 07:36:02;;;;;;;3.53;1.90;;;24.10;49.90;;;;;;5019699;28;20672;-60
2021/09/24 07:38:28;;;;;;;2.67;1.77;;;24.10;49.80;;;;;;5019545;28;20103;-59
2021/09/24 07:40:53;;;;;;;3.22;1.80;;;24.10;49.70;;;;;;5027279;28;20029;-55
2021/09/24 07:43:19;;;;;;;3.75;1.70;;;24.00;49.70;;;;;;5015255;28;20425;-59
2021/09/24 07:45:45;;;;;;;2.80;1.60;;;24.00;49.70;;;;;;5014372;28;20533;-60
2021/09/24 07:48:11;;;;;;;3.80;2.00;;;24.00;49.80;;;;;;5022239;28;20096;-55
2021/09/24 07:50:36;;;;;;;2.50;1.50;;;24.00;49.80;;;;;;5026690;28;20215;-60
2021/09/24 07:53:02;;;;;;;4.00;1.58;;;24.00;49.80;;;;;;5016762;28;20045;-59
2021/09/24 07:55:28;;;;;;;3.47;1.40;;;24.00;49.80;;;;;;5019491;28;20085;-59
2021/09/24 07:57:57;;;;;;;2.50;1.63;;;23.90;49.70;;;;;;5017734;28;20229;-60
2021/09/24 08:00:25;;;;;;;3.58;1.60;;;23.90;49.70;;;;;;5007578;28;20054;-59
2021/09/24 08:02:52;;;;;;;2.47;1.70;;;23.90;49.70;;;;;;5012476;28;20089;-60
2021/09/24 08:05:18;;;;;;;2.40;1.50;;;23.90;49.60;;;;;;5015664;28;20543;-59
2021/09/24 08:07:44;;;;;;;4.30;1.75;;;23.90;49.70;;;;;;5016444;28;20034;-59
2021/09/24 08:10:10;;;;;;;3.65;1.77;;;23.90;49.70;;;;;;5033651;28;20041;-57
2021/09/24 08:12:36;;;;;;;2.30;1.50;;;23.90;49.70;;;;;;5022464;28;20457;-57
2021/09/24 08:15:02;;;;;;;3.75;1.50;;;23.90;49.70;;;;;;5024021;28;20055;-59
2021/09/24 08:17:27;;;;;;;2.70;1.77;;;23.90;49.70;;;;;;5016208;28;20412;-60
2021/09/24 08:19:53;;;;;;;2.70;1.67;;;23.90;49.70;;;;;;5021795;28;20061;-59
2021/09/24 08:22:19;;;;;;;2.65;1.60;;;23.80;49.70;;;;;;5033361;28;20113;-60
2021/09/24 08:24:44;;;;;;;4.60;1.98;;;23.80;49.70;;;;;;5019758;28;20021;-59
2021/09/24 08:27:11;;;;;;;2.67;1.63;;;23.80;49.70;;;;;;5021525;28;20041;-57
2021/09/24 08:29:37;;;;;;;2.65;1.70;;;23.90;49.70;;;;;;5017054;28;20129;-59
2021/09/24 08:32:04;;;;;;;3.17;1.70;;;23.80;49.70;;;;;;5023229;28;20116;-59
2021/09/24 08:34:30;;;;;;;2.72;1.58;;;23.80;49.70;;;;;;5010866;28;20536;-60
2021/09/24 08:36:55;;;;;;;2.60;1.55;;;23.80;49.70;;;;;;5020869;28;20034;-59
2021/09/24 08:39:21;;;;;;;2.30;1.70;;;23.80;49.70;;;;;;5016391;28;20408;-59
2021/09/24 08:41:48;;;;;;;2.88;1.80;;;23.80;49.70;;;;;;5015224;28;20029;-60
2021/09/24 08:44:13;;;;;;;3.17;1.60;;;23.80;49.70;;;;;;5009933;28;20029;-60
2021/09/24 08:46:40;;;;;;;3.13;1.73;;;23.80;49.70;;;;;;5022247;28;20465;-60
2021/09/24 08:49:07;;;;;;;3.42;1.58;;;23.80;49.70;;;;;;5021731;28;20045;-59
2021/09/24 08:51:34;;;;;;;2.97;1.55;;;23.70;49.60;;;;;;5019988;28;20032;-59
2021/09/24 08:54:02;;;;;;;2.83;1.58;;;23.80;49.70;;;;;;5019090;28;20157;-60
2021/09/24 08:56:28;;;;;;;3.80;1.70;;;23.80;49.70;;;;;;5017220;28;20090;-59
2021/09/24 08:58:54;;;;;;;2.22;1.45;;;23.70;49.60;;;;;;5009702;28;20183;-58
2021/09/24 09:01:19;;;;;;;3.17;1.60;;;23.70;49.60;;;;;;5015545;28;20053;-59
2021/09/24 09:03:47;;;;;;;2.45;1.50;;;23.70;49.60;;;;;;5015061;28;20030;-60
2021/09/24 09:06:16;;;;;;;2.72;1.92;;;23.70;49.60;;;;;;5019968;28;20029;-60
2021/09/24 09:08:42;;;;;;;2.10;1.48;;;23.70;49.60;;;;;;5011409;28;20021;-60
2021/09/24 09:11:19;;;;;;;2.25;1.58;;;23.70;49.60;;;;;;5021350;28;20025;-60
2021/09/24 09:13:53;;;;;;;2.30;1.70;;;23.70;49.60;;;;;;5014841;28;20097;-60
2021/09/24 09:16:22;;;;;;;3.10;1.85;;;23.70;49.60;;;;;;5027798;28;20072;-60
2021/09/24 09:18:50;;;;;;;3.13;1.88;;;23.70;49.60;;;;;;5019486;28;20413;-60
2021/09/24 09:21:22;;;;;;;2.42;1.80;;;23.70;49.60;;;;;;5027354;28;20380;-61
2021/09/24 09:23:52;;;;;;;3.35;1.63;;;23.70;49.60;;;;;;5026607;28;20034;-59
2021/09/24 09:26:18;;;;;;;2.83;1.70;;;23.70;49.60;;;;;;5025564;28;20431;-59
2021/09/24 09:28:56;;;;;;;2.95;1.58;;;23.70;49.60;;;;;;5019916;28;20065;-61
2021/09/24 09:31:26;;;;;;;2.55;1.70;;;23.70;49.60;;;;;;5025941;28;20030;-59
2021/09/24 09:33:53;;;;;;;2.10;1.60;;;23.70;49.60;;;;;;5024172;28;20018;-60
2021/09/24 09:36:30;;;;;;;2.42;1.50;;;23.70;49.60;;;;;;5024341;28;20025;-60
2021/09/24 09:38:57;;;;;;;2.50;1.70;;;23.70;49.60;;;;;;5025026;28;20211;-59
2021/09/24 09:41:25;;;;;;;2.20;1.70;;;23.60;49.60;;;;;;5027114;28;20033;-59
2021/09/24 09:43:57;;;;;;;3.00;1.73;;;23.70;49.60;;;;;;5022858;28;20033;-60
2021/09/24 09:46:32;;;;;;;4.68;1.80;;;23.70;49.60;;;;;;5024657;28;20032;-60
2021/09/24 09:49:11;;;;;;;2.67;1.80;;;23.70;49.60;;;;;;5017751;28;20030;-59
2021/09/24 09:51:39;;;;;;;3.55;1.50;;;23.70;49.60;;;;;;5028137;28;20034;-60
2021/09/24 09:54:10;;;;;;;3.00;1.70;;;23.70;50.40;;;;;;5024871;28;20052;-60
2021/09/24 09:56:49;;;;;;;3.17;1.77;;;23.70;50.00;;;;;;5025337;28;20393;-60
2021/09/24 09:59:30;;;;;;;3.05;1.80;;;23.70;49.90;;;;;;5033376;28;20041;-60
2021/09/24 10:02:15;;;;;;;3.45;1.80;;;23.70;50.30;;;;;;5021363;28;20496;-60
2021/09/24 10:04:53;;;;;;;2.63;1.60;;;23.70;49.80;;;;;;5024291;28;20087;-59
2021/09/24 10:07:27;;;;;;;2.60;1.60;;;23.60;49.80;;;;;;5024853;28;20083;-60
2021/09/24 10:10:25;;;;;;;2.50;1.77;;;23.60;49.90;;;;;;5018723;28;20028;-60
2021/09/24 10:12:52;;;;;;;3.67;1.90;;;23.60;50.00;;;;;;5015796;28;20042;-58
2021/09/24 10:15:18;;;;;;;2.42;1.60;;;23.60;50.00;;;;;;5013906;28;20044;-60
2021/09/24 10:17:44;;;;;;;2.20;1.58;;;23.60;50.00;;;;;;5028994;28;20021;-60
2021/09/24 10:20:11;;;;;;;3.28;1.63;;;23.60;50.00;;;;;;5025759;28;20392;-61
2021/09/24 10:22:38;;;;;;;2.50;1.52;;;23.60;50.00;;;;;;5025299;28;20061;-59
2021/09/24 10:25:05;;;;;;;2.83;1.73;;;23.60;50.00;;;;;;5025840;28;20041;-60
2021/09/24 10:27:44;;;;;;;3.08;1.70;;;23.60;50.00;;;;;;5024041;28;20037;-60
2021/09/24 10:30:13;;;;;;;2.75;1.60;;;23.60;50.00;;;;;;5021943;28;20026;-59
2021/09/24 10:32:58;;;;;;;3.38;1.85;;;23.60;50.00;;;;;;5026480;28;20022;-60
2021/09/24 10:35:47;;;;;;;2.83;1.65;;;23.60;50.00;;;;;;5026693;28;20045;-60
2021/09/24 10:38:14;;;;;;;2.55;1.55;;;23.60;50.00;;;;;;5019096;28;20029;-59
2021/09/24 10:41:14;;;;;;;2.22;1.58;;;23.60;50.10;;;;;;5025795;28;20026;-59
2021/09/24 10:43:44;;;;;;;2.60;1.60;;;23.60;50.10;;;;;;5002609;28;20068;-60
2021/09/24 10:46:25;;;;;;;2.63;1.83;;;23.50;50.10;;;;;;5019725;28;20037;-59
2021/09/24 10:49:16;;;;;;;2.90;1.70;;;23.50;50.10;;;;;;5024632;28;20068;-60
2021/09/24 10:52:05;;;;;;;2.58;1.73;;;23.50;50.10;;;;;;5022653;28;20025;-60
2021/09/24 10:54:31;;;;;;;2.85;1.63;;;23.50;50.10;;;;;;5008751;28;20053;-60
2021/09/24 10:57:02;;;;;;;2.15;1.50;;;23.50;50.10;;;;;;5027590;28;20109;-59
2021/09/24 10:59:33;;;;;;;2.53;1.60;;;23.50;50.10;;;;;;5024339;28;20030;-56
2021/09/24 11:02:00;;;;;;;3.10;1.70;;;23.50;50.10;;;;;;5025255;28;20065;-56
2021/09/24 11:04:42;;;;;;;3.70;1.95;;;23.50;50.10;;;;;;5021577;28;20068;-60
2021/09/24 11:07:08;;;;;;;3.30;1.73;;;23.50;50.20;;;;;;5025264;28;20031;-59
2021/09/24 11:09:49;;;;;;;2.72;1.70;;;23.50;50.20;;;;;;5021550;28;20025;-60
2021/09/24 11:12:14;;;;;;;2.63;1.55;;;23.50;50.20;;;;;;5016860;28;20045;-59
2021/09/24 11:14:43;;;;;;;2.42;1.40;;;23.50;50.20;;;;;;5013846;28;20045;-60
2021/09/24 11:17:11;;;;;;;3.45;1.92;;;23.50;50.20;;;;;;5019598;28;20088;-60
2021/09/24 11:19:46;;;;;;;2.95;1.60;;;23.50;50.20;;;;;;5022665;28;20037;-60
2021/09/24 11:22:22;;;;;;;3.38;1.60;;;23.50;50.20;;;;;;5021245;28;20030;-60
2021/09/24 11:25:07;;;;;;;2.00;1.50;;;23.50;50.30;;;;;;5017379;28;20026;-60
2021/09/24 11:27:44;;;;;;;2.95;1.80;;;23.50;50.30;;;;;;5018881;28;20620;-59
2021/09/24 11:30:12;;;;;;;3.75;1.80;;;23.50;50.80;;;;;;5018528;28;20044;-59
2021/09/24 11:32:44;;;;;;;4.18;1.70;;;23.50;50.30;;;;;;5018173;28;20164;-60
2021/09/24 11:35:17;;;;;;;2.90;1.55;;;23.40;50.20;;;;;;5021505;28;20642;-58
2021/09/24 11:37:46;;;;;;;2.25;1.50;;;23.50;50.30;;;;;;5018626;28;20029;-60
2021/09/24 11:40:14;;;;;;;2.78;1.50;;;23.40;50.30;;;;;;5019086;28;20025;-62
2021/09/24 11:42:45;;;;;;;2.80;1.77;;;23.40;50.30;;;;;;5020490;28;20029;-59
2021/09/24 11:45:32;;;;;;;2.85;1.98;;;23.40;50.30;;;;;;5010826;28;20060;-58
2021/09/24 11:48:09;;;;;;;2.28;1.50;;;23.40;50.30;;;;;;5018147;28;20467;-59
2021/09/24 11:50:35;;;;;;;2.20;1.30;;;23.40;50.30;;;;;;5025412;28;20115;-61
2021/09/24 11:53:05;;;;;;;2.13;1.40;;;23.40;50.40;;;;;;5022720;28;20120;-60
2021/09/24 11:55:43;;;;;;;2.35;1.55;;;23.40;50.40;;;;;;5021803;28;20704;-61
2021/09/24 11:58:23;;;;;;;2.22;1.70;;;23.40;50.40;;;;;;5011969;28;20408;-56
2021/09/24 12:00:52;;;;;;;2.28;1.42;;;23.40;50.40;;;;;;5011022;28;20041;-61
2021/09/24 12:03:28;;;;;;;3.22;1.60;;;23.40;50.40;;;;;;5018818;28;20026;-57
2021/09/24 12:06:13;;;;;;;3.08;1.92;;;23.40;50.40;;;;;;5018448;28;20202;-61
2021/09/24 12:08:46;;;;;;;3.10;1.70;;;23.40;50.40;;;;;;5013797;28;20041;-57
2021/09/24 12:11:13;;;;;;;3.17;1.73;;;23.40;50.40;;;;;;5020383;28;20381;-54
2021/09/24 12:13:51;;;;;;;4.25;1.60;;;23.40;50.40;;;;;;5021947;28;20098;-61
2021/09/24 12:16:30;;;;;;;2.60;1.80;;;23.40;50.40;;;;;;5019194;28;20033;-61
2021/09/24 12:19:01;;;;;;;2.65;1.70;;;23.40;50.40;;;;;;5015120;28;20038;-59
2021/09/24 12:21:37;;;;;;;2.53;1.42;;;23.40;50.40;;;;;;5029448;28;20033;-60
2021/09/24 12:24:07;;;;;;;2.20;1.40;;;23.40;50.40;;;;;;5018125;28;20485;-61
2021/09/24 12:26:35;;;;;;;2.40;1.60;;;23.40;50.40;;;;;;5018870;28;20164;-59
2021/09/24 12:29:06;;;;;;;2.35;1.50;;;23.40;50.40;;;;;;5020160;28;20037;-61
2021/09/24 12:31:54;;;;;;;2.45;1.67;;;23.40;50.40;;;;;;5021344;28;20460;-60
2021/09/24 12:34:42;;;;;;;2.25;1.50;;;23.40;50.50;;;;;;5018756;28;20433;-60
2021/09/24 12:37:10;;;;;;;2.20;1.45;;;23.40;50.50;;;;;;5028083;28;20030;-62
2021/09/24 12:39:38;;;;;;;2.55;1.50;;;23.40;50.50;;;;;;5022678;28;20159;-59
2021/09/24 12:42:16;;;;;;;2.65;1.40;;;23.40;50.50;;;;;;5019636;28;20140;-60
2021/09/24 12:44:51;;;;;;;2.05;1.52;;;23.40;50.50;;;;;;5016290;28;20049;-61
2021/09/24 12:47:29;;;;;;;3.00;1.55;;;23.40;50.50;;;;;;5018767;28;20465;-60
2021/09/24 12:49:57;;;;;;;1.85;1.30;;;23.40;50.50;;;;;;5018932;28;20137;-59
2021/09/24 12:52:25;;;;;;;1.95;1.48;;;23.40;50.50;;;;;;5017245;28;20048;-60